createdAt,value
2022-09-30T00:01:39.943Z,12.42
2022-09-30T00:04:14.694Z,12.44
2022-09-30T00:06:42.988Z,12.42
2022-09-30T00:09:13.134Z,12.42
2022-09-30T00:11:42.333Z,12.45
2022-09-30T00:14:16.095Z,12.46
2022-09-30T00:16:45.005Z,12.48
2022-09-30T00:19:14.873Z,12.48
2022-09-30T00:21:43.609Z,12.47
2022-09-30T00:24:11.729Z,12.48
2022-09-30T00:26:39.961Z,12.47
2022-09-30T00:29:08.030Z,12.49
2022-09-30T00:31:36.561Z,12.48
2022-09-30T00:34:08.540Z,12.49
2022-09-30T00:36:43.755Z,12.51
2022-09-30T00:39:14.889Z,12.51
2022-09-30T00:41:43.597Z,12.52
2022-09-30T00:44:47.053Z,12.51
2022-09-30T00:47:47.385Z,12.54
2022-09-30T00:50:29.085Z,12.53
2022-09-30T00:53:01.848Z,12.54
2022-09-30T00:55:39.294Z,12.53
2022-09-30T00:58:10.500Z,12.54
2022-09-30T01:00:38.781Z,12.53
2022-09-30T01:03:08.041Z,12.54
2022-09-30T01:05:37.880Z,12.54
2022-09-30T01:08:10.167Z,12.55
2022-09-30T01:10:38.863Z,12.54
2022-09-30T01:13:07.700Z,12.55
2022-09-30T01:15:49.757Z,12.57
2022-09-30T01:18:27.422Z,12.58
2022-09-30T01:21:34.977Z,12.60
2022-09-30T01:24:41.665Z,12.60
2022-09-30T01:27:48.806Z,12.62
2022-09-30T01:30:21.798Z,12.62
2022-09-30T01:33:20.966Z,12.61
2022-09-30T01:36:07.383Z,12.58
2022-09-30T01:38:46.800Z,12.54
2022-09-30T01:41:26.486Z,12.60
2022-09-30T01:44:03.224Z,12.63
2022-09-30T01:46:37.896Z,12.61
2022-09-30T01:49:17.193Z,12.62
2022-09-30T01:51:53.683Z,12.66
2022-09-30T01:54:28.322Z,12.68
2022-09-30T01:57:04.425Z,12.72
2022-09-30T01:59:37.573Z,12.72
2022-09-30T02:02:12.120Z,12.73
2022-09-30T02:04:46.511Z,12.74
2022-09-30T02:07:25.176Z,12.74
2022-09-30T02:09:58.751Z,12.75
2022-09-30T02:12:31.390Z,12.73
2022-09-30T02:15:04.051Z,12.74
2022-09-30T02:17:36.876Z,12.73
2022-09-30T02:20:11.825Z,12.76
2022-09-30T02:22:44.716Z,12.78
2022-09-30T02:25:20.561Z,12.76
2022-09-30T02:27:55.321Z,12.76
2022-09-30T02:30:23.980Z,12.78
2022-09-30T02:32:58.242Z,12.80
2022-09-30T02:35:33.331Z,12.78
2022-09-30T02:38:06.032Z,12.79
2022-09-30T02:40:42.690Z,12.82
2022-09-30T02:43:11.646Z,12.83
2022-09-30T02:45:47.650Z,12.84
2022-09-30T02:48:27.720Z,12.88
2022-09-30T02:51:04.752Z,12.86
2022-09-30T02:53:37.753Z,12.86
2022-09-30T02:56:20.880Z,12.86
2022-09-30T02:58:51.262Z,12.84
2022-09-30T03:01:19.477Z,12.88
2022-09-30T03:03:51.454Z,12.88
2022-09-30T03:06:21.654Z,12.87
2022-09-30T03:08:49.926Z,12.90
2022-09-30T03:11:20.672Z,12.92
2022-09-30T03:14:19.178Z,12.90
2022-09-30T03:17:05.174Z,12.91
2022-09-30T03:19:51.057Z,12.88
2022-09-30T03:22:37.799Z,12.87
2022-09-30T03:25:20.779Z,12.86
2022-09-30T03:28:09.869Z,12.91
2022-09-30T03:30:48.430Z,12.94
2022-09-30T03:33:24.259Z,12.92
2022-09-30T03:36:00.898Z,12.96
2022-09-30T03:38:40.812Z,12.93
2022-09-30T03:41:15.788Z,12.92
2022-09-30T03:43:50.362Z,12.93
2022-09-30T03:46:26.001Z,12.90
2022-09-30T03:48:57.630Z,12.94
2022-09-30T03:51:26.192Z,12.95
2022-09-30T03:53:56.376Z,12.96
2022-09-30T03:56:28.464Z,12.94
2022-09-30T03:58:57.537Z,12.93
2022-09-30T04:01:25.971Z,12.94
2022-09-30T04:03:55.675Z,12.97
2022-09-30T04:06:26.196Z,12.98
2022-09-30T04:08:55.756Z,12.96
2022-09-30T04:11:23.799Z,12.93
2022-09-30T04:13:51.993Z,12.98
2022-09-30T04:16:20.395Z,12.98
2022-09-30T04:18:48.517Z,12.97
2022-09-30T04:21:17.302Z,12.97
2022-09-30T04:23:45.829Z,12.92
2022-09-30T04:26:17.286Z,12.90
2022-09-30T04:28:45.350Z,12.88
2022-09-30T04:31:17.826Z,12.89
2022-09-30T04:33:46.214Z,12.89
2022-09-30T04:36:14.424Z,12.87
2022-09-30T04:38:42.560Z,12.87
2022-09-30T04:41:16.305Z,12.87
2022-09-30T04:43:47.192Z,12.86
2022-09-30T04:46:15.834Z,12.88
2022-09-30T04:48:45.960Z,12.87
2022-09-30T04:51:14.293Z,12.85
2022-09-30T04:53:42.703Z,12.83
2022-09-30T04:56:11.672Z,12.85
2022-09-30T04:58:39.850Z,12.82
2022-09-30T05:01:11.624Z,12.82
2022-09-30T05:03:40.379Z,12.79
2022-09-30T05:06:08.840Z,12.84
2022-09-30T05:08:38.832Z,12.80
2022-09-30T05:11:14.695Z,12.82
2022-09-30T05:13:42.838Z,12.87
2022-09-30T05:16:13.383Z,12.88
2022-09-30T05:18:45.884Z,12.88
2022-09-30T05:21:15.879Z,12.90
2022-09-30T05:23:44.007Z,12.89
2022-09-30T05:26:12.997Z,12.91
2022-09-30T05:28:41.427Z,12.92
2022-09-30T05:31:09.783Z,12.91
2022-09-30T05:33:39.443Z,12.86
2022-09-30T05:36:10.055Z,12.84
2022-09-30T05:38:38.156Z,12.83
2022-09-30T05:41:11.564Z,12.85
2022-09-30T05:43:40.804Z,12.85
2022-09-30T05:46:09.485Z,12.85
2022-09-30T05:48:39.447Z,12.91
2022-09-30T05:51:08.139Z,12.92
2022-09-30T05:53:38.779Z,12.93
2022-09-30T05:56:08.212Z,12.98
2022-09-30T05:58:37.840Z,13.04
2022-09-30T06:01:13.133Z,13.02
2022-09-30T06:03:43.954Z,13.00
2022-09-30T06:06:13.054Z,13.01
2022-09-30T06:08:41.764Z,13.01
2022-09-30T06:11:13.139Z,13.02
2022-09-30T06:13:41.964Z,12.99
2022-09-30T06:16:11.909Z,13.02
2022-09-30T06:18:41.719Z,12.99
2022-09-30T06:21:13.424Z,12.97
2022-09-30T06:23:41.951Z,12.94
2022-09-30T06:26:13.510Z,12.93
2022-09-30T06:28:41.582Z,12.90
2022-09-30T06:31:10.282Z,12.88
2022-09-30T06:33:38.883Z,12.89
2022-09-30T06:36:07.359Z,12.89
2022-09-30T06:38:40.149Z,12.90
2022-09-30T06:41:09.838Z,12.87
2022-09-30T06:43:38.211Z,12.87
2022-09-30T06:46:15.405Z,12.85
2022-09-30T06:48:45.906Z,12.83
2022-09-30T06:51:14.143Z,12.84
2022-09-30T06:53:43.550Z,12.84
2022-09-30T06:56:11.723Z,12.84
2022-09-30T06:58:41.513Z,12.86
2022-09-30T07:01:09.719Z,12.88
2022-09-30T07:03:37.948Z,12.88
2022-09-30T07:06:07.574Z,12.90
2022-09-30T07:08:37.456Z,12.91
2022-09-30T07:11:12.024Z,12.93
2022-09-30T07:13:40.534Z,12.95
2022-09-30T07:16:08.716Z,12.94
2022-09-30T07:18:37.137Z,12.97
2022-09-30T07:21:06.218Z,12.97
2022-09-30T07:23:34.312Z,13.00
2022-09-30T07:26:05.948Z,13.07
2022-09-30T07:28:39.524Z,13.09
2022-09-30T07:31:32.040Z,13.12
2022-09-30T07:34:00.086Z,13.16
2022-09-30T07:36:33.085Z,13.18
2022-09-30T07:39:03.369Z,13.21
2022-09-30T07:41:31.576Z,13.23
2022-09-30T07:44:02.813Z,13.24
2022-09-30T07:46:32.981Z,13.25
2022-09-30T07:49:02.421Z,13.28
2022-09-30T07:51:33.005Z,13.30
2022-09-30T07:54:03.162Z,13.35
2022-09-30T07:56:45.585Z,13.36
2022-09-30T07:59:22.349Z,13.38
2022-09-30T08:01:51.447Z,13.40
2022-09-30T08:04:21.152Z,13.43
2022-09-30T08:06:51.116Z,13.46
2022-09-30T08:09:22.566Z,13.48
2022-09-30T08:11:51.406Z,13.51
2022-09-30T08:14:23.140Z,13.54
2022-09-30T08:16:51.950Z,13.57
2022-09-30T08:19:22.315Z,13.59
2022-09-30T08:21:53.348Z,13.61
2022-09-30T08:24:22.296Z,13.63
2022-09-30T08:26:50.928Z,13.63
2022-09-30T08:29:35.672Z,13.67
2022-09-30T08:32:08.822Z,13.70
2022-09-30T08:34:37.160Z,13.71
2022-09-30T08:37:09.269Z,13.72
2022-09-30T08:39:37.860Z,13.74
2022-09-30T08:45:21.369Z,13.80
2022-09-30T08:47:58.219Z,13.86
2022-09-30T08:50:35.845Z,13.90
2022-09-30T08:53:10.614Z,13.92
2022-09-30T08:55:42.880Z,13.94
2022-09-30T08:58:22.743Z,13.97
2022-09-30T09:00:56.831Z,14.00
2022-09-30T09:03:31.096Z,14.02
2022-09-30T09:06:10.114Z,14.06
2022-09-30T09:08:56.928Z,14.07
2022-09-30T09:11:42.801Z,14.14
2022-09-30T09:14:28.561Z,14.18
2022-09-30T09:17:15.401Z,14.23
2022-09-30T09:19:47.772Z,14.31
2022-09-30T09:22:16.911Z,14.35
2022-09-30T09:24:51.317Z,14.40
2022-09-30T09:27:24.946Z,14.44
2022-09-30T09:30:05.828Z,14.50
2022-09-30T09:32:36.661Z,14.54
2022-09-30T09:35:15.303Z,14.56
2022-09-30T09:38:10.595Z,14.66
2022-09-30T09:40:57.579Z,14.73
2022-09-30T09:43:36.257Z,14.70
2022-09-30T09:46:13.586Z,14.70
2022-09-30T09:48:44.948Z,14.68
2022-09-30T09:51:25.314Z,14.69
2022-09-30T09:53:58.301Z,14.71
2022-09-30T09:56:32.543Z,14.74
2022-09-30T09:59:16.047Z,14.77
2022-09-30T10:01:50.351Z,14.81
2022-09-30T10:04:24.729Z,14.85
2022-09-30T10:06:55.964Z,14.93
2022-09-30T10:09:27.432Z,14.96
2022-09-30T10:12:28.129Z,14.95
2022-09-30T10:15:16.822Z,15.02
2022-09-30T10:17:50.963Z,15.01
2022-09-30T10:20:28.026Z,15.04
2022-09-30T10:23:04.333Z,15.07
2022-09-30T10:25:32.751Z,15.09
2022-09-30T10:28:02.708Z,15.08
2022-09-30T10:30:43.116Z,15.12
2022-09-30T10:33:23.115Z,15.13
2022-09-30T10:36:08.560Z,15.16
2022-09-30T10:41:11.605Z,15.26
2022-09-30T10:43:44.524Z,15.29
2022-09-30T10:46:25.980Z,15.33
2022-09-30T10:48:56.271Z,15.42
2022-09-30T10:51:34.072Z,15.42
2022-09-30T10:54:02.473Z,15.45
2022-09-30T10:56:43.383Z,15.49
2022-09-30T10:59:34.378Z,15.53
2022-09-30T11:02:15.547Z,15.54
2022-09-30T11:04:49.990Z,15.59
2022-09-30T11:07:28.019Z,15.63
2022-09-30T11:10:01.909Z,15.66
2022-09-30T11:12:38.583Z,15.69
2022-09-30T11:15:17.199Z,15.73
2022-09-30T11:17:54.653Z,15.75
2022-09-30T11:20:27.794Z,15.78
2022-09-30T11:23:03.962Z,15.80
2022-09-30T11:25:42.029Z,15.84
2022-09-30T11:28:33.300Z,15.90
2022-09-30T11:31:11.384Z,15.93
2022-09-30T11:33:56.255Z,15.98
2022-09-30T11:36:33.000Z,16.04
2022-09-30T11:39:27.530Z,16.03
2022-09-30T11:42:03.943Z,16.02
2022-09-30T11:44:35.998Z,16.02
2022-09-30T11:47:28.928Z,15.99
2022-09-30T11:50:18.686Z,16.00
2022-09-30T11:52:57.158Z,15.95
2022-09-30T11:55:41.951Z,15.97
2022-09-30T11:58:39.256Z,15.96
2022-09-30T12:01:08.294Z,15.96
2022-09-30T12:03:41.473Z,15.96
2022-09-30T12:06:18.105Z,15.94
2022-09-30T12:08:51.668Z,15.92
2022-09-30T12:11:28.976Z,15.88
2022-09-30T12:14:02.125Z,15.87
2022-09-30T12:16:33.960Z,15.86
2022-09-30T12:19:14.830Z,15.84
2022-09-30T12:21:51.232Z,15.84
2022-09-30T12:24:26.796Z,15.82
2022-09-30T12:26:56.588Z,15.81
2022-09-30T12:29:48.079Z,15.81
2022-09-30T12:33:01.096Z,15.83
2022-09-30T12:35:43.632Z,15.89
2022-09-30T12:38:26.652Z,15.91
2022-09-30T12:41:11.949Z,15.91
2022-09-30T12:44:09.474Z,15.94
2022-09-30T12:46:57.249Z,15.95
2022-09-30T12:49:29.171Z,15.93
2022-09-30T12:51:59.682Z,15.96
2022-09-30T12:54:32.363Z,15.99
2022-09-30T12:57:04.337Z,16.00
2022-09-30T12:59:38.496Z,16.12
2022-09-30T13:02:09.972Z,16.35
2022-09-30T13:04:39.915Z,16.64
2022-09-30T13:07:23.158Z,16.94
2022-09-30T13:10:01.329Z,17.04
2022-09-30T13:12:41.995Z,17.32
2022-09-30T13:15:43.332Z,17.56
2022-09-30T13:18:48.534Z,17.71
2022-09-30T13:21:27.601Z,17.81
2022-09-30T13:23:56.966Z,17.88
2022-09-30T13:26:43.202Z,18.00
2022-09-30T13:29:41.549Z,18.13
2022-09-30T13:32:11.844Z,18.19
2022-09-30T13:34:56.269Z,18.14
2022-09-30T13:37:45.611Z,18.21
2022-09-30T13:40:28.860Z,18.26
2022-09-30T13:43:15.759Z,18.28
2022-09-30T13:45:47.086Z,18.33
2022-09-30T13:48:22.593Z,18.32
2022-09-30T13:50:52.954Z,18.24
2022-09-30T13:53:28.933Z,18.16
2022-09-30T13:56:00.052Z,18.13
2022-09-30T13:58:45.931Z,18.10
2022-09-30T14:01:26.357Z,18.16
2022-09-30T14:04:16.235Z,18.20
2022-09-30T14:06:54.504Z,18.09
2022-09-30T14:09:41.067Z,18.06
2022-09-30T14:12:35.832Z,18.09
2022-09-30T14:15:34.571Z,18.06
2022-09-30T14:18:25.099Z,18.07
2022-09-30T14:21:12.186Z,18.00
2022-09-30T14:23:40.400Z,18.02
2022-09-30T14:26:28.623Z,17.95
2022-09-30T14:29:05.221Z,17.87
2022-09-30T14:31:34.102Z,17.89
2022-09-30T14:34:03.101Z,17.79
2022-09-30T14:36:32.910Z,17.78
2022-09-30T14:39:02.449Z,17.71
2022-09-30T14:41:31.525Z,17.65
2022-09-30T14:44:07.998Z,17.59
2022-09-30T14:46:39.979Z,17.46
2022-09-30T14:49:10.868Z,17.43
2022-09-30T14:51:43.678Z,17.37
2022-09-30T14:54:19.920Z,17.30
2022-09-30T14:56:49.686Z,17.23
2022-09-30T14:59:20.317Z,17.20
2022-09-30T15:01:51.464Z,17.11
2022-09-30T15:04:24.898Z,17.07
2022-09-30T15:06:56.844Z,17.05
2022-09-30T15:09:29.339Z,17.03
2022-09-30T15:11:58.360Z,17.01
2022-09-30T15:14:26.794Z,16.95
2022-09-30T15:16:58.611Z,16.93
2022-09-30T15:19:30.141Z,16.90
2022-09-30T15:22:03.211Z,16.90
2022-09-30T15:24:33.431Z,16.90
2022-09-30T15:27:02.967Z,16.90
2022-09-30T15:29:31.313Z,16.86
2022-09-30T15:32:03.251Z,16.88
2022-09-30T15:34:32.100Z,16.85
2022-09-30T15:37:06.898Z,16.80
2022-09-30T15:39:55.796Z,16.77
2022-09-30T15:42:32.136Z,16.71
2022-09-30T15:45:00.481Z,16.68
2022-09-30T15:47:29.798Z,16.62
2022-09-30T15:49:58.178Z,16.56
2022-09-30T15:52:39.774Z,16.49
2022-09-30T15:55:39.065Z,16.47
2022-09-30T15:58:37.989Z,16.47
2022-09-30T16:01:19.665Z,16.42
2022-09-30T16:03:50.743Z,16.39
2022-09-30T16:06:25.518Z,16.38
2022-09-30T16:09:01.568Z,16.39
2022-09-30T16:11:34.929Z,16.41
2022-09-30T16:14:07.028Z,16.39
2022-09-30T16:16:38.040Z,16.38
2022-09-30T16:19:07.588Z,16.38
2022-09-30T16:21:50.762Z,16.38
2022-09-30T16:24:44.827Z,16.37
2022-09-30T16:27:31.650Z,16.38
2022-09-30T16:30:01.986Z,16.36
2022-09-30T16:32:34.033Z,16.33
2022-09-30T16:35:02.257Z,16.29
2022-09-30T16:37:30.880Z,16.26
2022-09-30T16:40:10.708Z,16.25
2022-09-30T16:42:39.201Z,16.16
2022-09-30T16:45:12.261Z,16.16
2022-09-30T16:47:40.330Z,16.12
2022-09-30T16:50:19.205Z,16.08
2022-09-30T16:52:47.356Z,16.09
2022-09-30T16:57:50.520Z,15.98
2022-09-30T17:00:20.401Z,15.95
2022-09-30T17:02:49.970Z,15.94
2022-09-30T17:05:20.078Z,15.92
2022-09-30T17:07:51.015Z,15.89
2022-09-30T17:10:22.893Z,15.87
2022-09-30T17:12:51.448Z,15.81
2022-09-30T17:15:21.733Z,15.80
2022-09-30T17:17:51.424Z,15.76
2022-09-30T17:20:19.444Z,15.79
2022-09-30T17:22:47.663Z,15.77
2022-09-30T17:25:16.307Z,15.73
2022-09-30T17:27:44.906Z,15.72
2022-09-30T17:30:13.538Z,15.65
2022-09-30T17:32:44.561Z,15.56
2022-09-30T17:35:13.119Z,15.54
2022-09-30T17:37:43.946Z,15.48
2022-09-30T17:40:32.196Z,15.44
2022-09-30T17:43:11.777Z,15.41
2022-09-30T17:45:42.376Z,15.37
2022-09-30T17:48:13.182Z,15.31
2022-09-30T17:50:44.453Z,15.29
2022-09-30T17:53:14.240Z,15.27
2022-09-30T17:55:43.870Z,15.29
2022-09-30T17:58:12.605Z,15.26
2022-09-30T18:00:40.929Z,15.25
2022-09-30T18:03:10.030Z,15.19
2022-09-30T18:05:39.495Z,15.14
2022-09-30T18:08:07.741Z,15.11
2022-09-30T18:10:37.626Z,15.06
2022-09-30T18:13:06.086Z,15.06
2022-09-30T18:15:34.203Z,15.02
2022-09-30T18:18:02.302Z,14.97
2022-09-30T18:20:30.443Z,14.96
2022-09-30T18:23:00.030Z,14.95
2022-09-30T18:25:28.207Z,14.92
2022-09-30T18:27:59.436Z,14.89
2022-09-30T18:30:28.136Z,14.84
2022-09-30T18:32:57.191Z,14.85
2022-09-30T18:35:25.824Z,14.84
2022-09-30T18:37:55.298Z,14.81
2022-09-30T18:40:26.856Z,14.81
2022-09-30T18:42:58.630Z,14.77
2022-09-30T18:45:26.774Z,14.73
2022-09-30T18:47:56.838Z,14.72
2022-09-30T18:50:26.092Z,14.70
2022-09-30T18:52:54.827Z,14.65
2022-09-30T18:55:24.992Z,14.66
2022-09-30T18:57:55.192Z,14.62
2022-09-30T19:00:23.303Z,14.64
2022-09-30T19:02:53.334Z,14.60
2022-09-30T19:05:21.617Z,14.57
2022-09-30T19:07:49.920Z,14.55
2022-09-30T19:10:18.379Z,14.56
2022-09-30T19:12:47.989Z,14.54
2022-09-30T19:15:16.968Z,14.52
2022-09-30T19:17:45.801Z,14.47
2022-09-30T19:20:15.648Z,14.51
2022-09-30T19:22:43.712Z,14.51
2022-09-30T19:25:13.008Z,14.50
2022-09-30T19:27:43.157Z,14.46
2022-09-30T19:30:14.703Z,14.44
2022-09-30T19:32:42.772Z,14.44
2022-09-30T19:35:12.582Z,14.42
2022-09-30T19:37:47.660Z,14.43
2022-09-30T19:40:22.899Z,14.40
2022-09-30T19:42:51.563Z,14.40
2022-09-30T19:45:25.877Z,14.41
2022-09-30T19:47:54.576Z,14.38
2022-09-30T19:50:22.799Z,14.33
2022-09-30T19:52:57.434Z,14.31
2022-09-30T19:55:26.660Z,14.29
2022-09-30T19:57:54.972Z,14.28
2022-09-30T20:00:24.716Z,14.26
2022-09-30T20:02:52.916Z,14.24
2022-09-30T20:05:22.318Z,14.22
2022-09-30T20:07:51.389Z,14.23
2022-09-30T20:10:20.146Z,14.21
2022-09-30T20:12:48.339Z,14.23
2022-09-30T20:15:34.373Z,14.21
2022-09-30T20:18:05.233Z,14.15
2022-09-30T20:20:37.424Z,14.15
2022-09-30T20:23:05.865Z,14.12
2022-09-30T20:25:36.331Z,14.17
2022-09-30T20:28:05.441Z,14.15
2022-09-30T20:30:35.081Z,14.16
2022-09-30T20:33:05.683Z,14.19
2022-09-30T20:35:37.144Z,14.17
2022-09-30T20:38:05.383Z,14.18
2022-09-30T20:40:34.662Z,14.17
2022-09-30T20:43:04.157Z,14.15
2022-09-30T20:45:32.410Z,14.13
2022-09-30T20:48:00.492Z,14.11
2022-09-30T20:50:36.408Z,14.09
2022-09-30T20:53:07.001Z,14.08
2022-09-30T20:55:37.220Z,14.13
2022-09-30T20:58:06.531Z,14.12
2022-09-30T21:00:35.932Z,14.13
2022-09-30T21:03:04.678Z,14.09
2022-09-30T21:05:34.250Z,14.06
2022-09-30T21:08:03.420Z,14.07
2022-09-30T21:10:32.011Z,14.06
2022-09-30T21:13:01.391Z,14.03
2022-09-30T21:15:31.628Z,14.06
2022-09-30T21:17:59.827Z,14.06
2022-09-30T21:20:28.047Z,14.07
2022-09-30T21:22:57.707Z,14.10
2022-09-30T21:25:25.971Z,14.11
2022-09-30T21:27:54.270Z,14.10
2022-09-30T21:30:22.496Z,14.06
2022-09-30T21:32:50.731Z,14.09
2022-09-30T21:35:18.968Z,14.06
2022-09-30T21:37:49.741Z,14.04
2022-09-30T21:40:19.824Z,14.02
2022-09-30T21:42:48.011Z,14.01
2022-09-30T21:45:19.339Z,13.99
2022-09-30T21:47:47.592Z,14.00
2022-09-30T21:50:15.813Z,13.95
2022-09-30T21:52:44.092Z,13.92
2022-09-30T21:55:13.420Z,13.88
2022-09-30T21:57:43.478Z,13.89
2022-09-30T22:00:12.511Z,13.84
2022-09-30T22:02:40.742Z,13.79
2022-09-30T22:05:09.995Z,13.79
2022-09-30T22:07:38.165Z,13.77
2022-09-30T22:10:08.472Z,13.77
2022-09-30T22:12:36.587Z,13.74
2022-09-30T22:15:06.899Z,13.74
2022-09-30T22:17:34.988Z,13.70
2022-09-30T22:20:03.436Z,13.70
2022-09-30T22:22:31.530Z,13.69
2022-09-30T22:24:59.659Z,13.66
2022-09-30T22:27:28.324Z,13.67
2022-09-30T22:29:56.772Z,13.64
2022-09-30T22:32:26.377Z,13.64
2022-09-30T22:35:12.184Z,13.64
2022-09-30T22:38:03.317Z,13.58
2022-09-30T22:40:31.753Z,13.55
2022-09-30T22:42:59.880Z,13.54
2022-09-30T22:45:28.183Z,13.52
2022-09-30T22:47:58.677Z,13.53
2022-09-30T22:50:28.993Z,13.52
2022-09-30T22:52:58.136Z,13.54
2022-09-30T22:55:26.393Z,13.53
2022-09-30T22:57:54.401Z,13.47
2022-09-30T23:00:22.578Z,13.46
2022-09-30T23:02:53.058Z,13.47
2022-09-30T23:05:22.495Z,13.40
2022-09-30T23:07:50.631Z,13.39
2022-09-30T23:10:18.678Z,13.39
2022-09-30T23:12:47.339Z,13.39
2022-09-30T23:15:15.523Z,13.37
2022-09-30T23:17:43.688Z,13.39
2022-09-30T23:20:11.975Z,13.40
2022-09-30T23:22:41.428Z,13.39
2022-09-30T23:25:10.537Z,13.37
2022-09-30T23:27:38.611Z,13.33
2022-09-30T23:30:07.899Z,13.40
2022-09-30T23:32:35.954Z,13.39
2022-09-30T23:35:04.315Z,13.32
2022-09-30T23:37:32.424Z,13.34
2022-09-30T23:40:02.575Z,13.34
2022-09-30T23:42:32.377Z,13.35
2022-09-30T23:45:00.542Z,13.34
2022-09-30T23:47:28.810Z,13.32
2022-09-30T23:49:58.418Z,13.33
2022-09-30T23:52:26.517Z,13.32
2022-09-30T23:54:55.143Z,13.26
2022-09-30T23:57:24.736Z,13.31
2022-09-30T23:59:52.817Z,13.27
